Chastre-Villeroux-Blanmont, Belgium
Current Conditions -  °F | °C
As of 7:25 AM on Saturday 25 Oct 2014 (Local Time) from EBBE Reporting Station
Overcast Overcast  
Wind Chill: 52°   Ceiling: 300
Heat Index: 52°   Visibility: 3mi
Dew Point: 52°   Wind: 6mph
Humidity: 100%   Direction: 220°SW
Pressure: 30.03"   Gusts: NA
Location:  50.61°N, 4.64°E
Report Text: EBBE 250525Z AUTO 22005KT 5000 OVC003/// 11/11 Q1017 YLO
Loading
Personal Weather Stations






























Interactive Weather Map
Tropical Storm Tracking
New forecast layout! Learn more

10-Day Weather Forecast

Advertisements
Track Severe Weather on mobile